Time;durP1;ratioP1;P1;durP2;ratioP2;P2;SDS_P1;SDS_P2;PMS_P1;PMS_P2;Temp;Humidity;BMP_temperature;BMP_pressure;BME280_temperature;BME280_humidity;BME280_pressure;Samples;Min_cycle;Max_cycle;Signal;HPM_P1;HPM_P2
2024/02/27 00:00:07;;;;;;;24.25;11.27;;;;;;;;;;4996879;28;20878;-64
2024/02/27 00:03:01;;;;;;;20.58;10.57;;;;;;;;;;4988444;28;20046;-64
2024/02/27 00:05:48;;;;;;;21.98;11.10;;;;;;;;;;4985272;28;20057;-64
2024/02/27 00:08:42;;;;;;;21.95;10.70;;;;;;;;;;4989653;28;20046;-64
2024/02/27 00:11:29;;;;;;;21.73;11.48;;;;;;;;;;4991850;28;20050;-53
2024/02/27 00:14:23;;;;;;;22.52;10.73;;;;;;;;;;4991220;28;20055;-47
2024/02/27 00:17:24;;;;;;;18.42;9.50;;;;;;;;;;4987555;28;20066;-46
2024/02/27 00:20:18;;;;;;;22.58;9.52;;;;;;;;;;4993290;28;20466;-48
2024/02/27 00:23:12;;;;;;;19.40;9.45;;;;;;;;;;4993716;28;20054;-51
2024/02/27 00:25:59;;;;;;;16.27;9.10;;;;;;;;;;4987722;28;20064;-61
2024/02/27 00:28:53;;;;;;;23.48;9.98;;;;;;;;;;4993639;28;20531;-62
2024/02/27 00:31:40;;;;;;;13.93;9.05;;;;;;;;;;4994025;28;20078;-62
2024/02/27 00:34:35;;;;;;;15.45;8.30;;;;;;;;;;4994296;28;21299;-58
2024/02/27 00:37:21;;;;;;;23.77;9.85;;;;;;;;;;4993054;28;20176;-62
2024/02/27 00:40:15;;;;;;;19.48;9.13;;;;;;;;;;4991011;28;20628;-63
2024/02/27 00:43:02;;;;;;;17.70;9.45;;;;;;;;;;4988618;28;20058;-62
2024/02/27 00:45:56;;;;;;;16.92;8.82;;;;;;;;;;4982069;28;20050;-62
2024/02/27 00:48:43;;;;;;;19.70;8.18;;;;;;;;;;4993205;28;20058;-63
2024/02/27 00:51:37;;;;;;;18.45;8.95;;;;;;;;;;4991631;28;20054;-62
2024/02/27 00:54:31;;;;;;;16.38;9.23;;;;;;;;;;4991407;28;20054;-64
2024/02/27 00:57:18;;;;;;;22.80;10.00;;;;;;;;;;4992703;28;20050;-63
2024/02/27 01:00:13;;;;;;;18.88;9.23;;;;;;;;;;4993949;28;20058;-65
2024/02/27 01:02:59;;;;;;;17.08;8.82;;;;;;;;;;4996233;28;20631;-62
2024/02/27 01:05:53;;;;;;;15.93;8.57;;;;;;;;;;4995616;28;20061;-65
2024/02/27 01:08:41;;;;;;;18.98;9.25;;;;;;;;;;4998509;28;20460;-65
2024/02/27 01:11:34;;;;;;;20.13;10.07;;;;;;;;;;4997897;28;20045;-65
2024/02/27 01:14:28;;;;;;;15.40;8.50;;;;;;;;;;4994874;28;20184;-66
2024/02/27 01:17:15;;;;;;;18.67;7.88;;;;;;;;;;4992696;28;20148;-66
2024/02/27 01:20:09;;;;;;;20.77;8.80;;;;;;;;;;4994407;28;20193;-65
2024/02/27 01:22:56;;;;;;;20.85;9.30;;;;;;;;;;4998837;28;20058;-62
2024/02/27 01:25:51;;;;;;;20.30;8.45;;;;;;;;;;4996207;28;20057;-63
2024/02/27 01:28:38;;;;;;;21.55;8.82;;;;;;;;;;5001762;28;20054;-62
2024/02/27 01:31:32;;;;;;;22.90;8.63;;;;;;;;;;4996761;28;20136;-65
2024/02/27 01:34:20;;;;;;;19.75;9.07;;;;;;;;;;4997646;28;20123;-62
2024/02/27 01:37:13;;;;;;;18.48;8.80;;;;;;;;;;4998096;28;20053;-63
2024/02/27 01:40:08;;;;;;;27.10;11.45;;;;;;;;;;4998629;28;20105;-62
2024/02/27 01:43:01;;;;;;;26.75;10.75;;;;;;;;;;4993026;28;20065;-62
2024/02/27 01:46:04;;;;;;;24.30;11.18;;;;;;;;;;5001116;28;20056;-63
2024/02/27 01:48:54;;;;;;;32.60;11.15;;;;;;;;;;4998165;28;20649;-63
2024/02/27 01:51:47;;;;;;;40.83;11.85;;;;;;;;;;4996176;28;20053;-59
2024/02/27 01:54:34;;;;;;;32.67;10.27;;;;;;;;;;4998621;28;20470;-59
2024/02/27 01:57:28;;;;;;;28.63;10.63;;;;;;;;;;4995165;28;20128;-58
2024/02/27 02:00:15;;;;;;;24.67;10.40;;;;;;;;;;4995697;28;20583;-63
2024/02/27 02:03:09;;;;;;;39.50;12.20;;;;;;;;;;4993562;28;20383;-60
2024/02/27 02:05:58;;;;;;;38.72;12.07;;;;;;;;;;4996058;28;20073;-58
2024/02/27 02:08:50;;;;;;;35.80;11.98;;;;;;;;;;4992715;28;20058;-60
2024/02/27 02:11:45;;;;;;;39.83;11.90;;;;;;;;;;4995770;28;20072;-60
2024/02/27 02:14:32;;;;;;;36.83;12.00;;;;;;;;;;4995066;28;20141;-57
2024/02/27 02:17:33;;;;;;;36.83;11.70;;;;;;;;;;4994462;28;20065;-61
2024/02/27 02:20:20;;;;;;;40.83;13.18;;;;;;;;;;4991354;28;20502;-47
2024/02/27 02:23:14;;;;;;;36.50;11.77;;;;;;;;;;4993732;28;20050;-56
2024/02/27 02:26:02;;;;;;;36.22;13.15;;;;;;;;;;4995541;28;20540;-57
2024/02/27 02:28:55;;;;;;;42.22;12.50;;;;;;;;;;4992439;28;20058;-56
2024/02/27 02:31:42;;;;;;;30.50;10.88;;;;;;;;;;4993335;28;20046;-55
2024/02/27 02:34:36;;;;;;;30.30;10.60;;;;;;;;;;4992651;28;20060;-55
2024/02/27 02:37:26;;;;;;;35.55;11.27;;;;;;;;;;4992305;28;20424;-65
2024/02/27 02:40:19;;;;;;;25.27;10.80;;;;;;;;;;4994760;28;20065;-65
2024/02/27 02:43:06;;;;;;;27.35;11.07;;;;;;;;;;4994023;28;20065;-64
2024/02/27 02:45:59;;;;;;;26.45;10.15;;;;;;;;;;4992628;28;20096;-63
2024/02/27 02:48:46;;;;;;;32.70;11.43;;;;;;;;;;4993948;28;20057;-50
2024/02/27 02:51:40;;;;;;;31.63;13.23;;;;;;;;;;4995709;28;20058;-59
2024/02/27 02:54:27;;;;;;;31.52;11.98;;;;;;;;;;4994653;28;20053;-60
2024/02/27 02:57:21;;;;;;;36.78;12.60;;;;;;;;;;4996258;28;20054;-56
2024/02/27 03:00:08;;;;;;;47.28;11.77;;;;;;;;;;4991243;28;20049;-59
2024/02/27 03:03:02;;;;;;;37.22;12.85;;;;;;;;;;4993547;28;20096;-58
2024/02/27 03:05:49;;;;;;;31.15;11.07;;;;;;;;;;4989981;28;20684;-62
2024/02/27 03:08:43;;;;;;;32.83;12.05;;;;;;;;;;4994280;28;20074;-64
2024/02/27 03:11:30;;;;;;;29.80;11.82;;;;;;;;;;4990957;28;20042;-62
2024/02/27 03:14:24;;;;;;;32.63;12.38;;;;;;;;;;4994973;28;20058;-62
2024/02/27 03:17:18;;;;;;;37.38;13.02;;;;;;;;;;4994253;28;20054;-65
2024/02/27 03:20:12;;;;;;;30.50;11.80;;;;;;;;;;4987867;28;20096;-49
2024/02/27 03:23:00;;;;;;;36.03;12.63;;;;;;;;;;4998668;28;20081;-49
2024/02/27 03:25:53;;;;;;;33.97;12.60;;;;;;;;;;4995517;28;20053;-53
2024/02/27 03:28:47;;;;;;;36.60;12.82;;;;;;;;;;4989342;28;20061;-47
2024/02/27 03:31:34;;;;;;;33.30;12.00;;;;;;;;;;4991586;28;20113;-50
2024/02/27 03:34:28;;;;;;;28.52;11.73;;;;;;;;;;4990286;28;20096;-56
2024/02/27 03:37:16;;;;;;;32.90;11.20;;;;;;;;;;4992568;28;20053;-56
2024/02/27 03:40:09;;;;;;;31.52;12.38;;;;;;;;;;4995072;28;20057;-57
2024/02/27 03:42:56;;;;;;;28.02;11.07;;;;;;;;;;4984867;28;20046;-49
2024/02/27 03:45:50;;;;;;;36.63;11.63;;;;;;;;;;4994315;28;20058;-62
2024/02/27 03:48:38;;;;;;;29.10;11.02;;;;;;;;;;4993894;28;20077;-56
2024/02/27 03:51:31;;;;;;;28.27;10.93;;;;;;;;;;4992179;28;20061;-56
2024/02/27 03:54:18;;;;;;;30.33;10.73;;;;;;;;;;4993222;28;20064;-57
2024/02/27 03:57:13;;;;;;;29.85;10.80;;;;;;;;;;4994503;28;20068;-55
2024/02/27 03:59:59;;;;;;;32.22;11.20;;;;;;;;;;4995772;28;20128;-56
2024/02/27 04:02:53;;;;;;;34.65;13.35;;;;;;;;;;4991451;28;20168;-48
2024/02/27 04:05:43;;;;;;;38.75;12.60;;;;;;;;;;4991856;28;20081;-50
2024/02/27 04:08:38;;;;;;;33.05;11.32;;;;;;;;;;4990905;28;20430;-49
2024/02/27 04:11:25;;;;;;;36.47;12.05;;;;;;;;;;4990227;28;20129;-58
2024/02/27 04:14:19;;;;;;;29.33;10.45;;;;;;;;;;4992463;28;20057;-58
2024/02/27 04:17:13;;;;;;;31.48;12.48;;;;;;;;;;4991327;28;20117;-51
2024/02/27 04:20:07;;;;;;;41.17;12.55;;;;;;;;;;4993463;28;20064;-52
2024/02/27 04:22:54;;;;;;;33.25;12.88;;;;;;;;;;4991487;28;20061;-51
2024/02/27 04:25:48;;;;;;;35.45;11.40;;;;;;;;;;4992451;28;21648;-49
2024/02/27 04:28:35;;;;;;;35.45;12.55;;;;;;;;;;4991524;28;20073;-47
2024/02/27 04:31:29;;;;;;;38.13;11.50;;;;;;;;;;4995953;28;20057;-59
2024/02/27 04:34:16;;;;;;;32.60;11.75;;;;;;;;;;4998129;28;20100;-61
2024/02/27 04:37:10;;;;;;;33.08;12.07;;;;;;;;;;4993859;28;20504;-60
2024/02/27 04:39:57;;;;;;;40.40;12.30;;;;;;;;;;4996969;28;20058;-57
2024/02/27 04:42:51;;;;;;;42.58;12.60;;;;;;;;;;4997776;28;20053;-54
2024/02/27 04:45:38;;;;;;;41.10;13.50;;;;;;;;;;4994442;28;20124;-50
2024/02/27 04:48:32;;;;;;;35.80;12.85;;;;;;;;;;4997037;28;20058;-51
2024/02/27 04:51:19;;;;;;;64.88;14.82;;;;;;;;;;4995351;28;20058;-54
2024/02/27 04:54:15;;;;;;;37.35;11.98;;;;;;;;;;4995329;28;20101;-53
2024/02/27 04:57:02;;;;;;;39.10;11.63;;;;;;;;;;4993688;28;20072;-55
2024/02/27 04:59:56;;;;;;;37.45;12.85;;;;;;;;;;4994937;28;20081;-61
2024/02/27 05:02:43;;;;;;;37.05;13.10;;;;;;;;;;4987370;28;20413;-60
2024/02/27 05:05:37;;;;;;;33.15;13.68;;;;;;;;;;4995727;28;20461;-59
2024/02/27 05:08:24;;;;;;;35.60;13.10;;;;;;;;;;4993481;28;20108;-56
2024/02/27 05:11:26;;;;;;;34.50;13.00;;;;;;;;;;4996734;28;20050;-51
2024/02/27 05:14:12;;;;;;;35.35;13.18;;;;;;;;;;4999103;28;20054;-50
2024/02/27 05:17:06;;;;;;;26.55;10.73;;;;;;;;;;4998516;28;20054;-53
2024/02/27 05:20:07;;;;;;;27.15;10.73;;;;;;;;;;4993281;28;20415;-48
2024/02/27 05:23:03;;;;;;;48.60;13.90;;;;;;;;;;4995383;28;20125;-47
2024/02/27 05:25:48;;;;;;;37.08;12.70;;;;;;;;;;4997610;28;20394;-55
2024/02/27 05:28:42;;;;;;;41.95;13.02;;;;;;;;;;5000489;28;22003;-65
2024/02/27 05:31:30;;;;;;;49.65;13.93;;;;;;;;;;4995784;28;20050;-66
2024/02/27 05:34:24;;;;;;;40.65;12.93;;;;;;;;;;4998105;28;20445;-65
2024/02/27 05:37:11;;;;;;;35.63;13.10;;;;;;;;;;4995658;28;20682;-66
2024/02/27 05:40:08;;;;;;;30.85;12.90;;;;;;;;;;4995651;28;20046;-64
2024/02/27 05:42:52;;;;;;;36.65;12.20;;;;;;;;;;4996132;28;20089;-65
2024/02/27 05:45:46;;;;;;;42.67;12.35;;;;;;;;;;4997265;28;20112;-65
2024/02/27 05:48:33;;;;;;;37.67;12.75;;;;;;;;;;4993054;28;20058;-66
2024/02/27 05:51:27;;;;;;;47.88;13.57;;;;;;;;;;4990380;28;20050;-64
2024/02/27 05:54:14;;;;;;;41.95;12.98;;;;;;;;;;4995114;28;20046;-65
2024/02/27 05:57:09;;;;;;;40.90;12.82;;;;;;;;;;4993790;28;20417;-64
2024/02/27 05:59:55;;;;;;;46.42;14.02;;;;;;;;;;4985700;28;20494;-66
2024/02/27 06:02:50;;;;;;;42.20;13.27;;;;;;;;;;4992740;28;20062;-65
2024/02/27 06:05:37;;;;;;;49.60;13.75;;;;;;;;;;4999002;28;20077;-65
2024/02/27 06:08:31;;;;;;;41.85;13.57;;;;;;;;;;4996270;28;20109;-65
2024/02/27 06:11:25;;;;;;;43.20;13.55;;;;;;;;;;4995644;28;20054;-65
2024/02/27 06:14:13;;;;;;;57.08;14.45;;;;;;;;;;4997710;28;20547;-56
2024/02/27 06:17:13;;;;;;;43.38;13.93;;;;;;;;;;4991462;28;20057;-65
2024/02/27 06:22:10;;;;;;;53.47;14.05;;;;;;;;;;4996190;28;20097;-63
2024/02/27 06:23:01;;;;;;;37.15;13.07;;;;;;;;;;4995326;28;20054;-64
2024/02/27 06:25:48;;;;;;;39.70;12.80;;;;;;;;;;4987097;28;20080;-64
2024/02/27 06:28:42;;;;;;;40.97;12.65;;;;;;;;;;4996342;28;20054;-64
2024/02/27 06:31:30;;;;;;;37.47;13.30;;;;;;;;;;4995352;28;20100;-65
2024/02/27 06:34:25;;;;;;;32.65;12.80;;;;;;;;;;4994341;28;20478;-65
2024/02/27 06:37:13;;;;;;;40.50;13.38;;;;;;;;;;4995920;28;20054;-46
2024/02/27 06:40:26;;;;;;;38.78;12.25;;;;;;;;;;4996589;28;20058;-49
2024/02/27 06:43:20;;;;;;;44.05;13.50;;;;;;;;;;4996413;28;20845;-50
2024/02/27 06:46:07;;;;;;;39.17;13.23;;;;;;;;;;4998847;28;20073;-51
2024/02/27 06:49:01;;;;;;;39.35;12.90;;;;;;;;;;4993495;28;20513;-52
2024/02/27 06:51:50;;;;;;;;;;;;;;;;;;4999121;28;20053;-50
2024/02/27 06:54:43;;;;;;;41.53;11.95;;;;;;;;;;4995554;28;19933;-60
2024/02/27 06:57:30;;;;;;;30.17;11.85;;;;;;;;;;4997124;28;20046;-61
2024/02/27 07:00:24;;;;;;;29.90;11.15;;;;;;;;;;4998962;28;20726;-59
2024/02/27 07:03:18;;;;;;;28.92;10.30;;;;;;;;;;4996000;28;20141;-59
2024/02/27 07:06:05;;;;;;;33.85;12.93;;;;;;;;;;4999471;28;20544;-59
2024/02/27 07:08:59;;;;;;;29.42;12.15;;;;;;;;;;4986612;28;20774;-59
2024/02/27 07:11:46;;;;;;;27.13;11.57;;;;;;;;;;4993722;28;20501;-57
2024/02/27 07:14:43;;;;;;;33.08;13.00;;;;;;;;;;4998129;28;20056;-62
2024/02/27 07:17:30;;;;;;;28.77;12.02;;;;;;;;;;4994576;28;20053;-63
2024/02/27 07:20:31;;;;;;;30.02;12.65;;;;;;;;;;4993285;28;20073;-63
2024/02/27 07:23:18;;;;;;;29.63;12.73;;;;;;;;;;4996000;28;20086;-63
2024/02/27 07:26:12;;;;;;;24.02;11.20;;;;;;;;;;4989784;28;20054;-63
2024/02/27 07:28:59;;;;;;;27.00;11.50;;;;;;;;;;4993768;28;20559;-54
2024/02/27 07:31:53;;;;;;;24.13;11.00;;;;;;;;;;4995555;28;20504;-54
2024/02/27 07:34:42;;;;;;;21.20;10.00;;;;;;;;;;4994840;28;20116;-56
2024/02/27 07:37:35;;;;;;;20.70;10.00;;;;;;;;;;4994075;28;20050;-58
2024/02/27 07:40:28;;;;;;;23.02;11.05;;;;;;;;;;4995592;28;20077;-59
2024/02/27 07:43:15;;;;;;;23.52;10.95;;;;;;;;;;4996544;28;20058;-58
2024/02/27 07:46:13;;;;;;;23.20;10.77;;;;;;;;;;4997997;28;20057;-63
2024/02/27 07:48:59;;;;;;;24.05;11.48;;;;;;;;;;4998331;28;20050;-61
2024/02/27 07:51:54;;;;;;;28.13;11.88;;;;;;;;;;4997776;28;20211;-60
2024/02/27 07:54:40;;;;;;;21.30;10.15;;;;;;;;;;4995981;28;20061;-59
2024/02/27 07:57:34;;;;;;;22.20;10.80;;;;;;;;;;4998253;28;20058;-59
2024/02/27 08:00:21;;;;;;;21.17;10.40;;;;;;;;;;5000036;28;20050;-60
2024/02/27 08:03:15;;;;;;;17.85;8.68;;;;;;;;;;5000585;28;20703;-60
2024/02/27 08:06:03;;;;;;;16.70;8.60;;;;;;;;;;4989359;28;20057;-65
2024/02/27 08:08:57;;;;;;;4.13;2.88;;;;;;;;;;5003186;28;20057;-63
2024/02/27 08:11:44;;;;;;;4.07;2.85;;;;;;;;;;5002856;28;20369;-63
2024/02/27 08:14:38;;;;;;;3.10;2.53;;;;;;;;;;5003833;28;20111;-63
2024/02/27 08:17:32;;;;;;;6.40;3.25;;;;;;;;;;5000454;28;20049;-62
2024/02/27 08:20:25;;;;;;;4.65;2.70;;;;;;;;;;5000199;28;20113;-63
2024/02/27 08:23:12;;;;;;;2.78;1.90;;;;;;;;;;5003304;28;20507;-54
2024/02/27 08:26:06;;;;;;;2.10;1.88;;;;;;;;;;4999876;28;20057;-61
2024/02/27 08:28:54;;;;;;;4.40;2.63;;;;;;;;;;5004170;28;20715;-60
2024/02/27 08:31:47;;;;;;;3.60;2.58;;;;;;;;;;5001973;28;20520;-60
2024/02/27 08:34:34;;;;;;;3.55;2.10;;;;;;;;;;5002788;28;20107;-61
2024/02/27 08:37:30;;;;;;;3.45;2.70;;;;;;;;;;5003196;28;20517;-61
2024/02/27 08:40:16;;;;;;;4.80;3.38;;;;;;;;;;5002135;28;20270;-61
2024/02/27 08:43:13;;;;;;;5.63;3.42;;;;;;;;;;5002622;28;20728;-65
2024/02/27 08:45:59;;;;;;;5.65;3.75;;;;;;;;;;5003318;28;20108;-53
2024/02/27 08:48:53;;;;;;;9.52;4.72;;;;;;;;;;5002757;28;20042;-53
2024/02/27 08:51:47;;;;;;;3.55;2.80;;;;;;;;;;5003707;28;20053;-54
2024/02/27 08:54:34;;;;;;;3.97;2.50;;;;;;;;;;5000956;28;20058;-54
2024/02/27 08:57:28;;;;;;;2.75;1.92;;;;;;;;;;5003842;28;20053;-54
2024/02/27 09:00:16;;;;;;;2.00;1.70;;;;;;;;;;5004473;28;20128;-64
2024/02/27 09:03:09;;;;;;;2.60;2.17;;;;;;;;;;4998043;28;20050;-60
2024/02/27 09:05:56;;;;;;;2.78;1.95;;;;;;;;;;5005236;28;20572;-58
2024/02/27 09:08:50;;;;;;;3.25;2.28;;;;;;;;;;5001479;28;20054;-59
2024/02/27 09:11:38;;;;;;;2.40;1.85;;;;;;;;;;5001040;28;20061;-61
2024/02/27 09:14:38;;;;;;;2.53;1.77;;;;;;;;;;5001473;28;20584;-60
2024/02/27 09:17:32;;;;;;;2.67;2.25;;;;;;;;;;4990160;28;20084;-63
2024/02/27 09:20:33;;;;;;;2.08;1.60;;;;;;;;;;4990705;28;20417;-64
2024/02/27 09:23:26;;;;;;;2.58;1.90;;;;;;;;;;4998596;28;20832;-50
2024/02/27 09:26:13;;;;;;;2.78;1.80;;;;;;;;;;4997994;28;20061;-48
2024/02/27 09:29:07;;;;;;;2.95;2.17;;;;;;;;;;4994456;28;20108;-49
2024/02/27 09:31:54;;;;;;;3.58;2.00;;;;;;;;;;4998943;28;20461;-46
2024/02/27 09:34:50;;;;;;;3.50;2.30;;;;;;;;;;4997818;28;20203;-47
2024/02/27 09:37:22;;;;;;;2.90;2.20;;;;;;;;;;4994006;28;20074;-60
2024/02/27 09:40:15;;;;;;;2.78;2.10;;;;;;;;;;5000047;28;20053;-64
2024/02/27 09:43:02;;;;;;;3.13;2.20;;;;;;;;;;4982764;28;20062;-65
2024/02/27 09:45:57;;;;;;;2.72;2.33;;;;;;;;;;4997023;28;20051;-65
2024/02/27 09:48:45;;;;;;;2.22;1.75;;;;;;;;;;4999821;28;20156;-65
2024/02/27 09:51:55;;;;;;;4.60;1.90;;;;;;;;;;4990478;28;20046;-65
2024/02/27 09:54:42;;;;;;;2.13;1.92;;;;;;;;;;4996385;28;20065;-54
2024/02/27 09:57:37;;;;;;;2.75;2.08;;;;;;;;;;4998360;28;20073;-62
2024/02/27 10:00:23;;;;;;;2.97;2.15;;;;;;;;;;4997449;28;20057;-63
2024/02/27 10:03:17;;;;;;;2.33;1.88;;;;;;;;;;4998544;28;20265;-62
2024/02/27 10:06:05;;;;;;;2.35;1.92;;;;;;;;;;4995805;28;20133;-63
2024/02/27 10:09:01;;;;;;;2.58;2.05;;;;;;;;;;4990222;28;20536;-62
2024/02/27 10:11:49;;;;;;;1.92;1.73;;;;;;;;;;4994894;28;20472;-62
2024/02/27 10:14:42;;;;;;;2.67;1.95;;;;;;;;;;4991829;28;20513;-47
2024/02/27 10:17:43;;;;;;;2.05;1.63;;;;;;;;;;4995864;28;20054;-47
2024/02/27 10:20:37;;;;;;;1.60;1.50;;;;;;;;;;4993035;28;20049;-47
2024/02/27 10:23:31;;;;;;;2.28;1.90;;;;;;;;;;4998043;28;20058;-52
2024/02/27 10:26:24;;;;;;;2.50;1.65;;;;;;;;;;4991931;28;20141;-48
2024/02/27 10:29:12;;;;;;;2.70;1.90;;;;;;;;;;4996643;28;20577;-50
2024/02/27 10:32:08;;;;;;;3.15;2.00;;;;;;;;;;4988384;28;20058;-62
2024/02/27 10:35:05;;;;;;;2.65;2.00;;;;;;;;;;4993209;28;20093;-48
2024/02/27 10:37:53;;;;;;;2.22;2.00;;;;;;;;;;4993689;28;20106;-47
2024/02/27 10:40:47;;;;;;;2.47;2.03;;;;;;;;;;4990934;28;20780;-47
2024/02/27 10:43:34;;;;;;;2.10;1.75;;;;;;;;;;4991667;28;20477;-46
2024/02/27 10:46:41;;;;;;;2.15;1.90;;;;;;;;;;4979427;28;20054;-49
2024/02/27 10:49:28;;;;;;;;;;;;;;;;;;4990715;28;20264;-58
2024/02/27 10:52:24;;;;;;;3.15;2.00;;;;;;;;;;4994752;28;19956;-50
2024/02/27 10:54:53;;;;;;;4.25;1.85;;;;;;;;;;4976756;28;20640;-62
2024/02/27 10:57:47;;;;;;;3.40;1.63;;;;;;;;;;4991983;28;20050;-63
2024/02/27 11:00:34;;;;;;;2.65;1.92;;;;;;;;;;4992921;28;20509;-63
2024/02/27 11:03:29;;;;;;;1.92;1.60;;;;;;;;;;4993952;28;20046;-63
2024/02/27 11:06:19;;;;;;;1.83;1.63;;;;;;;;;;4994615;28;21245;-63
2024/02/27 11:09:13;;;;;;;2.20;1.80;;;;;;;;;;4995961;28;20053;-64
2024/02/27 11:12:04;;;;;;;2.63;1.75;;;;;;;;;;4992953;28;20584;-64
2024/02/27 11:14:59;;;;;;;1.98;1.70;;;;;;;;;;4991663;28;20050;-65
2024/02/27 11:17:56;;;;;;;2.47;1.90;;;;;;;;;;4993534;28;20056;-65
2024/02/27 11:20:57;;;;;;;3.38;2.20;;;;;;;;;;4991811;28;20054;-65
2024/02/27 11:23:44;;;;;;;2.47;1.98;;;;;;;;;;4982397;28;20584;-65
2024/02/27 11:26:39;;;;;;;2.05;1.85;;;;;;;;;;4991351;28;20411;-62
2024/02/27 11:29:26;;;;;;;3.15;2.00;;;;;;;;;;4985893;28;20050;-62
2024/02/27 11:32:21;;;;;;;1.60;1.50;;;;;;;;;;4991656;28;20050;-61
2024/02/27 11:35:10;;;;;;;2.53;1.90;;;;;;;;;;4990700;28;20636;-60
2024/02/27 11:38:05;;;;;;;2.10;1.90;;;;;;;;;;4993745;28;20553;-61
2024/02/27 11:40:53;;;;;;;1.70;1.60;;;;;;;;;;4989756;28;20403;-60
2024/02/27 11:43:47;;;;;;;1.80;1.70;;;;;;;;;;4988399;28;20100;-59
2024/02/27 11:46:43;;;;;;;1.95;1.75;;;;;;;;;;4996460;28;20538;-63
2024/02/27 11:49:43;;;;;;;2.17;1.70;;;;;;;;;;4991062;28;20127;-63
2024/02/27 11:52:35;;;;;;;2.90;1.77;;;;;;;;;;4993305;28;20069;-59
2024/02/27 11:55:29;;;;;;;3.92;1.95;;;;;;;;;;4990178;28;20521;-59
2024/02/27 11:58:17;;;;;;;2.20;2.00;;;;;;;;;;4991335;28;20569;-61
2024/02/27 12:01:14;;;;;;;4.55;2.30;;;;;;;;;;4993819;28;20449;-60
2024/02/27 12:04:06;;;;;;;3.20;2.22;;;;;;;;;;4994208;28;20092;-64
2024/02/27 12:06:57;;;;;;;2.90;2.22;;;;;;;;;;4994312;28;20057;-59
2024/02/27 12:09:44;;;;;;;2.72;2.28;;;;;;;;;;4989521;28;20050;-57
2024/02/27 12:12:39;;;;;;;3.17;2.30;;;;;;;;;;4992413;28;20399;-58
2024/02/27 12:15:32;;;;;;;2.63;2.30;;;;;;;;;;4995702;28;20050;-59
2024/02/27 12:18:26;;;;;;;2.03;1.80;;;;;;;;;;4992704;28;20116;-58
2024/02/27 12:21:27;;;;;;;3.33;2.38;;;;;;;;;;4992361;28;20161;-62
2024/02/27 12:24:15;;;;;;;2.50;1.90;;;;;;;;;;4991233;28;20412;-62
2024/02/27 12:27:14;;;;;;;3.53;2.38;;;;;;;;;;4992961;28;20064;-57
2024/02/27 12:30:07;;;;;;;3.08;2.67;;;;;;;;;;4991760;28;20060;-56
2024/02/27 12:32:55;;;;;;;3.00;2.40;;;;;;;;;;4989661;28;20165;-59
2024/02/27 12:35:43;;;;;;;4.65;2.90;;;;;;;;;;4995363;28;20050;-57
2024/02/27 12:38:37;;;;;;;4.95;2.70;;;;;;;;;;4991429;28;20054;-58
2024/02/27 12:41:24;;;;;;;5.03;2.83;;;;;;;;;;4993152;28;20053;-60
2024/02/27 12:44:18;;;;;;;3.55;2.75;;;;;;;;;;4992549;28;20100;-63
2024/02/27 12:47:05;;;;;;;4.90;2.72;;;;;;;;;;4993995;28;20517;-62
2024/02/27 12:50:01;;;;;;;5.20;3.25;;;;;;;;;;4991108;28;20361;-62
2024/02/27 12:52:49;;;;;;;4.00;2.92;;;;;;;;;;4995517;28;20101;-63
2024/02/27 12:55:45;;;;;;;4.65;2.95;;;;;;;;;;4995639;28;20054;-62
2024/02/27 12:58:31;;;;;;;4.85;2.97;;;;;;;;;;4995412;28;20058;-63
2024/02/27 13:01:24;;;;;;;3.70;3.00;;;;;;;;;;4996437;28;20533;-59
2024/02/27 13:04:13;;;;;;;5.88;3.38;;;;;;;;;;4996692;28;20054;-60
2024/02/27 13:07:09;;;;;;;4.75;3.28;;;;;;;;;;4996371;28;20058;-60
2024/02/27 13:09:56;;;;;;;4.35;3.00;;;;;;;;;;4997191;28;20056;-60
2024/02/27 13:13:09;;;;;;;4.53;3.40;;;;;;;;;;4994833;28;20421;-60
2024/02/27 13:15:56;;;;;;;4.75;3.13;;;;;;;;;;4999283;28;20058;-59
2024/02/27 13:18:57;;;;;;;7.70;3.42;;;;;;;;;;4996172;28;20077;-53
2024/02/27 13:21:44;;;;;;;4.63;3.10;;;;;;;;;;4993663;28;20050;-48
2024/02/27 13:24:38;;;;;;;4.60;3.10;;;;;;;;;;4993258;28;20461;-48
2024/02/27 13:27:25;;;;;;;7.00;2.80;;;;;;;;;;4995495;28;20046;-48
2024/02/27 13:30:19;;;;;;;4.03;3.35;;;;;;;;;;4990938;28;20062;-49
2024/02/27 13:33:06;;;;;;;6.38;3.95;;;;;;;;;;4995626;28;20045;-47
2024/02/27 13:36:01;;;;;;;5.38;3.00;;;;;;;;;;4998680;28;20133;-52
2024/02/27 13:38:48;;;;;;;4.57;3.03;;;;;;;;;;4995767;28;20301;-47
2024/02/27 13:41:44;;;;;;;4.43;3.00;;;;;;;;;;4996866;28;20050;-49
2024/02/27 13:44:30;;;;;;;7.93;3.67;;;;;;;;;;4988540;28;20061;-47
2024/02/27 13:47:24;;;;;;;7.38;3.35;;;;;;;;;;4995529;28;20061;-47
2024/02/27 13:50:11;;;;;;;7.65;3.30;;;;;;;;;;4993461;28;20054;-49
2024/02/27 13:53:10;;;;;;;10.13;3.45;;;;;;;;;;4998766;28;20111;-54
2024/02/27 13:55:52;;;;;;;4.43;3.28;;;;;;;;;;4994109;28;20054;-47
2024/02/27 13:58:46;;;;;;;7.40;3.08;;;;;;;;;;4995396;28;20160;-60
2024/02/27 14:01:33;;;;;;;9.18;3.97;;;;;;;;;;4992817;28;20152;-58
2024/02/27 14:04:28;;;;;;;6.43;3.40;;;;;;;;;;4995094;28;20046;-59
2024/02/27 14:07:15;;;;;;;5.35;3.40;;;;;;;;;;4993025;28;20049;-60
2024/02/27 14:10:09;;;;;;;6.00;3.22;;;;;;;;;;4992307;28;20058;-60
2024/02/27 14:12:56;;;;;;;4.38;3.13;;;;;;;;;;4995440;28;20049;-65
2024/02/27 14:15:51;;;;;;;6.45;3.60;;;;;;;;;;4993010;28;20189;-62
2024/02/27 14:18:52;;;;;;;7.30;3.53;;;;;;;;;;4989670;28;20506;-62
2024/02/27 14:21:46;;;;;;;6.05;3.25;;;;;;;;;;4991792;28;20061;-63
2024/02/27 14:24:33;;;;;;;5.75;3.35;;;;;;;;;;4992576;28;20180;-62
2024/02/27 14:27:27;;;;;;;5.35;3.78;;;;;;;;;;4995174;28;20124;-63
2024/02/27 14:30:14;;;;;;;6.63;3.45;;;;;;;;;;4989866;28;20513;-51
2024/02/27 14:33:08;;;;;;;4.03;3.15;;;;;;;;;;4996306;28;20525;-61
2024/02/27 14:35:37;;;;;;;5.13;3.40;;;;;;;;;;4993918;28;20050;-60
2024/02/27 14:38:30;;;;;;;5.72;3.20;;;;;;;;;;4993814;28;20165;-60
2024/02/27 14:41:16;;;;;;;5.97;3.47;;;;;;;;;;4990128;28;20068;-61
2024/02/27 14:44:10;;;;;;;3.72;3.00;;;;;;;;;;4994383;28;20050;-61
2024/02/27 14:47:04;;;;;;;5.88;3.38;;;;;;;;;;4991366;28;20081;-61
2024/02/27 14:49:58;;;;;;;3.97;2.85;;;;;;;;;;4994229;28;20054;-59
2024/02/27 14:52:45;;;;;;;5.30;2.92;;;;;;;;;;4992366;28;20058;-53
2024/02/27 14:55:39;;;;;;;5.13;2.72;;;;;;;;;;4993371;28;20395;-49
2024/02/27 14:58:26;;;;;;;4.03;2.83;;;;;;;;;;4992583;28;20053;-51
2024/02/27 15:01:20;;;;;;;5.28;2.80;;;;;;;;;;4992356;28;20659;-48
2024/02/27 15:04:16;;;;;;;6.47;3.35;;;;;;;;;;4991674;28;20066;-50
2024/02/27 15:07:10;;;;;;;5.30;2.72;;;;;;;;;;4993097;28;20058;-64
2024/02/27 15:10:05;;;;;;;5.43;3.10;;;;;;;;;;4994492;28;20719;-66
2024/02/27 15:12:53;;;;;;;4.40;3.50;;;;;;;;;;4992571;28;20050;-66
2024/02/27 15:15:46;;;;;;;5.13;3.33;;;;;;;;;;4993674;28;20113;-66
2024/02/27 15:18:40;;;;;;;6.68;3.47;;;;;;;;;;4993086;28;20545;-66
2024/02/27 15:21:33;;;;;;;6.55;3.70;;;;;;;;;;4991995;28;20050;-66
2024/02/27 15:24:21;;;;;;;7.50;3.80;;;;;;;;;;4995257;28;20068;-65
2024/02/27 15:27:14;;;;;;;6.00;3.67;;;;;;;;;;4992976;28;20642;-65
2024/02/27 15:30:02;;;;;;;6.13;3.22;;;;;;;;;;4981572;28;20058;-65
2024/02/27 15:32:35;;;;;;;7.00;3.38;;;;;;;;;;4990463;28;20489;-66
2024/02/27 15:35:23;;;;;;;7.75;3.88;;;;;;;;;;4992676;28;20245;-66
2024/02/27 15:38:16;;;;;;;6.22;3.75;;;;;;;;;;4994320;28;20501;-66
2024/02/27 15:41:10;;;;;;;6.95;4.05;;;;;;;;;;4992634;28;20065;-66
2024/02/27 15:43:57;;;;;;;5.38;3.55;;;;;;;;;;4994346;28;20053;-61
2024/02/27 15:46:52;;;;;;;6.60;4.28;;;;;;;;;;4993214;28;20428;-65
2024/02/27 15:49:39;;;;;;;9.18;4.30;;;;;;;;;;4980841;28;20053;-66
2024/02/27 15:52:39;;;;;;;7.40;4.25;;;;;;;;;;4991408;28;20135;-65
2024/02/27 15:55:26;;;;;;;9.20;3.90;;;;;;;;;;4990711;28;20061;-65
2024/02/27 15:58:27;;;;;;;9.13;6.40;;;;;;;;;;4988487;28;20464;-65
2024/02/27 16:01:21;;;;;;;6.03;3.88;;;;;;;;;;4985276;28;20132;-65
2024/02/27 16:04:07;;;;;;;6.70;4.25;;;;;;;;;;4993617;28;20058;-59
2024/02/27 16:06:57;;;;;;;6.82;4.03;;;;;;;;;;4971107;28;20057;-63
2024/02/27 16:09:51;;;;;;;6.18;4.20;;;;;;;;;;4991388;28;20421;-63
2024/02/27 16:12:39;;;;;;;8.13;4.40;;;;;;;;;;4989913;28;20065;-63
2024/02/27 16:15:32;;;;;;;5.57;3.95;;;;;;;;;;4987173;28;20093;-63
2024/02/27 16:18:26;;;;;;;6.20;4.40;;;;;;;;;;4990053;28;20458;-61
2024/02/27 16:21:28;;;;;;;8.07;5.00;;;;;;;;;;4981197;28;20201;-65
2024/02/27 16:24:22;;;;;;;9.73;5.20;;;;;;;;;;4990027;28;20054;-63
2024/02/27 16:27:16;;;;;;;6.63;4.32;;;;;;;;;;4991658;28;20312;-63
2024/02/27 16:30:04;;;;;;;7.30;4.07;;;;;;;;;;4990705;28;20089;-63
2024/02/27 16:32:59;;;;;;;8.05;4.32;;;;;;;;;;4992441;28;20417;-63
2024/02/27 16:35:46;;;;;;;6.07;4.15;;;;;;;;;;4995468;28;20054;-63
2024/02/27 16:38:40;;;;;;;6.75;4.53;;;;;;;;;;4997751;28;20062;-64
2024/02/27 16:41:27;;;;;;;7.80;3.70;;;;;;;;;;4997113;28;20064;-49
2024/02/27 16:44:21;;;;;;;7.40;4.03;;;;;;;;;;4994343;28;20084;-61
2024/02/27 16:47:08;;;;;;;9.15;4.88;;;;;;;;;;4998455;28;20065;-60
2024/02/27 16:50:05;;;;;;;10.25;5.05;;;;;;;;;;4986070;28;20115;-61
2024/02/27 16:52:53;;;;;;;12.73;5.72;;;;;;;;;;4991113;28;20065;-61